Time;durP1;ratioP1;P1;durP2;ratioP2;P2;SDS_P1;SDS_P2;PMS_P1;PMS_P2;Temp;Humidity;BMP_temperature;BMP_pressure;BME280_temperature;BME280_humidity;BME280_pressure;Samples;Min_cycle;Max_cycle;Signal;HPM_P1;HPM_P2
2024/01/01 00:00:34;;;;;;;52.63;46.90;;;15.10;99.90;;;;;;5027221;28;20061;-66
2024/01/01 00:03:00;;;;;;;53.22;47.72;;;15.30;99.90;;;;;;5025504;28;20099;-65
2024/01/01 00:05:25;;;;;;;57.05;50.75;;;13.90;99.90;;;;;;5016263;28;20079;-66
2024/01/01 00:07:51;;;;;;;64.07;56.65;;;12.90;99.90;;;;;;5041121;28;20049;-66
2024/01/01 00:10:18;;;;;;;68.88;59.38;;;13.00;99.90;;;;;;5028608;28;20132;-65
2024/01/01 00:12:43;;;;;;;68.90;61.55;;;15.10;99.90;;;;;;5024567;28;20308;-65
2024/01/01 00:15:09;;;;;;;79.28;70.82;;;15.20;99.90;;;;;;5044827;28;20541;-66
2024/01/01 00:17:35;;;;;;;68.78;61.63;;;15.20;99.90;;;;;;5028733;28;20103;-64
2024/01/01 00:20:00;;;;;;;75.07;66.63;;;12.60;99.90;;;;;;5029908;28;20570;-66
2024/01/01 00:22:26;;;;;;;58.17;49.20;;;14.80;99.90;;;;;;5041482;28;20040;-65
2024/01/01 00:24:54;;;;;;;78.18;68.97;;;12.60;99.90;;;;;;5041554;28;20045;-65
2024/01/01 00:27:20;;;;;;;85.50;74.68;;;14.90;99.90;;;;;;5042167;28;20469;-66
2024/01/01 00:29:45;;;;;;;87.07;73.03;;;14.00;99.90;;;;;;5046688;28;20124;-66
2024/01/01 00:32:11;;;;;;;74.80;66.45;;;15.00;99.90;;;;;;5048056;28;20037;-65
2024/01/01 00:34:36;;;;;;;65.72;58.63;;;14.60;99.90;;;;;;5047756;28;20065;-67
2024/01/01 00:37:02;;;;;;;49.72;42.13;;;12.40;99.90;;;;;;5033122;28;20049;-66
2024/01/01 00:39:28;;;;;;;45.47;40.70;;;12.40;99.90;;;;;;5037966;28;20055;-65
2024/01/01 00:41:53;;;;;;;62.83;55.95;;;12.80;99.90;;;;;;5045899;28;20065;-66
2024/01/01 00:44:19;;;;;;;69.35;59.60;;;12.70;99.90;;;;;;5045757;28;20045;-65
2024/01/01 00:46:44;;;;;;;70.22;58.20;;;13.70;99.90;;;;;;5023601;28;20076;-67
2024/01/01 00:49:10;;;;;;;71.85;56.97;;;13.30;99.90;;;;;;5043135;28;20040;-66
2024/01/01 00:51:35;;;;;;;76.35;61.17;;;13.30;99.90;;;;;;5047942;28;20037;-67
2024/01/01 00:54:01;;;;;;;75.25;58.15;;;12.70;99.90;;;;;;5037572;28;20053;-68
2024/01/01 00:56:26;;;;;;;62.88;52.78;;;14.80;99.90;;;;;;5016190;28;20045;-66
2024/01/01 00:58:52;;;;;;;63.47;53.33;;;14.60;99.90;;;;;;5042307;28;20091;-66
2024/01/01 01:01:18;;;;;;;69.47;57.15;;;14.50;99.90;;;;;;5034294;28;20061;-66
2024/01/01 01:03:43;;;;;;;65.72;57.05;;;14.00;99.90;;;;;;5027300;28;20191;-66
2024/01/01 01:06:09;;;;;;;71.60;58.47;;;12.30;99.90;;;;;;5027790;28;20041;-66
2024/01/01 01:08:34;;;;;;;65.63;56.45;;;12.70;99.90;;;;;;5026976;28;20049;-67
2024/01/01 01:11:00;;;;;;;60.40;53.78;;;13.90;99.90;;;;;;5027189;28;20045;-65
2024/01/01 01:13:25;;;;;;;60.55;53.78;;;13.10;99.90;;;;;;5039849;28;20514;-70
2024/01/01 01:15:51;;;;;;;60.88;54.38;;;12.40;99.90;;;;;;5047369;28;20505;-65
2024/01/01 01:18:16;;;;;;;61.50;52.35;;;13.90;99.90;;;;;;5047498;28;20048;-68
2024/01/01 01:20:42;;;;;;;51.75;43.30;;;14.00;99.90;;;;;;5031164;28;20052;-67
2024/01/01 01:23:08;;;;;;;72.63;64.78;;;14.30;99.90;;;;;;5021075;28;20150;-67
2024/01/01 01:25:33;;;;;;;86.00;74.43;;;14.40;99.90;;;;;;5027243;28;20049;-66
2024/01/01 01:27:59;;;;;;;95.53;82.88;;;12.30;99.90;;;;;;5027365;28;20041;-66
2024/01/01 01:30:25;;;;;;;113.30;99.60;;;14.20;99.90;;;;;;5044485;28;20052;-66
2024/01/01 01:32:50;;;;;;;129.00;100.63;;;13.40;99.90;;;;;;5044566;28;20415;-70
2024/01/01 01:35:16;;;;;;;131.25;105.50;;;14.20;99.90;;;;;;5026044;28;20037;-67
2024/01/01 01:37:43;;;;;;;92.45;61.53;;;14.20;99.90;;;;;;5036549;28;20051;-67
2024/01/01 01:40:08;;;;;;;83.32;57.30;;;12.70;99.90;;;;;;5036849;28;20051;-69
2024/01/01 01:42:35;;;;;;;102.95;82.50;;;12.50;99.90;;;;;;5039180;28;20479;-67
2024/01/01 01:45:01;;;;;;;102.32;86.32;;;12.40;99.90;;;;;;5044327;28;20084;-67
2024/01/01 01:47:27;;;;;;;106.43;91.28;;;14.60;99.90;;;;;;5046829;28;20080;-69
2024/01/01 01:49:55;;;;;;;116.70;96.15;;;14.40;99.90;;;;;;5046755;28;20041;-66
2024/01/01 01:52:21;;;;;;;93.57;83.30;;;14.70;99.90;;;;;;5047081;28;20420;-68
2024/01/01 01:54:49;;;;;;;61.28;55.33;;;12.40;99.90;;;;;;5038820;28;20625;-69
2024/01/01 01:57:14;;;;;;;58.60;52.60;;;14.40;99.90;;;;;;5046309;28;20125;-67
2024/01/01 01:59:43;;;;;;;60.53;54.53;;;12.00;99.90;;;;;;5014848;28;20049;-66
2024/01/01 02:02:10;;;;;;;78.15;69.82;;;14.20;99.90;;;;;;5043381;28;20128;-67
2024/01/01 02:04:35;;;;;;;56.58;48.17;;;14.70;99.90;;;;;;5045807;28;20395;-66
2024/01/01 02:07:01;;;;;;;65.30;54.40;;;12.50;99.90;;;;;;5044195;28;20044;-66
2024/01/01 02:09:27;;;;;;;101.57;90.55;;;14.40;99.90;;;;;;5028495;28;20110;-67
2024/01/01 02:11:52;;;;;;;74.55;57.22;;;12.20;99.90;;;;;;5011885;28;20132;-69
2024/01/01 02:14:18;;;;;;;98.50;84.63;;;13.90;99.90;;;;;;5026223;28;20045;-67
2024/01/01 02:16:44;;;;;;;92.20;80.30;;;13.60;99.90;;;;;;5024186;28;20045;-67
2024/01/01 02:19:21;;;;;;;75.93;67.93;;;14.30;99.90;;;;;;5036655;28;20045;-66
2024/01/01 02:21:49;;;;;;;77.40;69.07;;;12.50;99.90;;;;;;5028630;28;20045;-65
2024/01/01 02:24:15;;;;;;;74.20;66.95;;;13.60;99.90;;;;;;5044900;28;20055;-67
2024/01/01 02:26:45;;;;;;;83.93;75.28;;;14.30;99.90;;;;;;5046039;28;20115;-65
2024/01/01 02:29:11;;;;;;;118.10;103.95;;;14.30;99.90;;;;;;5015410;28;20483;-66
2024/01/01 02:31:37;;;;;;;144.43;126.18;;;12.30;99.90;;;;;;5035966;28;20041;-65
2024/01/01 02:34:03;;;;;;;115.85;78.57;;;14.50;99.90;;;;;;5041034;28;20040;-66
2024/01/01 02:36:29;;;;;;;145.32;124.43;;;14.60;99.90;;;;;;5025463;28;20049;-67
2024/01/01 02:38:55;;;;;;;107.68;77.43;;;12.30;99.90;;;;;;5026572;28;20041;-67
2024/01/01 02:41:21;;;;;;;132.10;117.25;;;12.20;99.90;;;;;;5042895;28;20048;-66
2024/01/01 02:43:47;;;;;;;116.20;101.20;;;12.20;99.90;;;;;;5041608;28;20049;-65
2024/01/01 02:46:12;;;;;;;75.07;57.65;;;12.60;99.90;;;;;;5029052;28;20033;-66
2024/01/01 02:48:38;;;;;;;66.95;54.88;;;14.40;99.90;;;;;;5033776;28;20063;-66
2024/01/01 02:51:04;;;;;;;74.35;66.75;;;12.30;99.90;;;;;;5037670;28;20497;-65
2024/01/01 02:53:31;;;;;;;52.05;43.63;;;12.50;99.90;;;;;;5025459;28;20095;-67
2024/01/01 02:55:57;;;;;;;69.93;62.45;;;12.90;99.90;;;;;;5026616;28;20084;-67
2024/01/01 02:58:22;;;;;;;60.85;47.83;;;12.00;99.90;;;;;;5026578;28;20649;-69
2024/01/01 03:00:48;;;;;;;54.78;43.22;;;13.80;99.90;;;;;;5024913;28;20069;-72
2024/01/01 03:03:14;;;;;;;56.28;50.45;;;11.90;99.90;;;;;;5039070;28;20864;-67
2024/01/01 03:05:41;;;;;;;43.88;38.28;;;12.50;99.90;;;;;;5038492;28;20033;-68
2024/01/01 03:08:07;;;;;;;38.97;35.13;;;14.50;99.90;;;;;;5040935;28;20478;-68
2024/01/01 03:10:33;;;;;;;41.50;36.05;;;14.50;99.90;;;;;;5028104;28;20095;-67
2024/01/01 03:12:59;;;;;;;46.33;41.38;;;14.40;99.90;;;;;;5044923;28;20044;-67
2024/01/01 03:15:24;;;;;;;54.45;48.25;;;12.10;99.90;;;;;;5044978;28;20384;-69
2024/01/01 03:17:51;;;;;;;65.25;57.55;;;12.50;99.90;;;;;;5043271;28;20041;-67
2024/01/01 03:20:16;;;;;;;80.30;66.55;;;14.10;99.90;;;;;;5042795;28;20470;-67
2024/01/01 03:22:42;;;;;;;80.68;68.88;;;14.80;99.90;;;;;;5024774;28;20048;-67
2024/01/01 03:25:09;;;;;;;82.45;71.75;;;14.90;99.90;;;;;;5027267;28;20036;-68
2024/01/01 03:27:35;;;;;;;83.00;66.78;;;14.40;99.90;;;;;;5043781;28;20569;-68
2024/01/01 03:30:05;;;;;;;76.32;64.45;;;15.30;99.90;;;;;;5009811;28;20033;-67
2024/01/01 03:32:35;;;;;;;78.22;68.35;;;12.40;99.90;;;;;;5024843;28;20041;-68
2024/01/01 03:35:01;;;;;;;75.20;64.28;;;12.30;99.90;;;;;;5015769;28;20088;-67
2024/01/01 03:37:26;;;;;;;76.65;64.95;;;15.00;99.90;;;;;;5031568;28;20096;-69
2024/01/01 03:39:52;;;;;;;62.83;42.83;;;14.50;99.90;;;;;;5025749;28;20487;-67
2024/01/01 03:42:17;;;;;;;72.45;59.63;;;15.10;99.90;;;;;;5024011;28;20495;-67
2024/01/01 03:44:43;;;;;;;71.65;57.80;;;14.80;99.90;;;;;;5027861;28;20512;-69
2024/01/01 03:47:08;;;;;;;46.50;39.67;;;12.80;99.90;;;;;;5045360;28;20513;-69
2024/01/01 03:49:34;;;;;;;75.80;56.13;;;13.60;99.90;;;;;;5044316;28;20574;-70
2024/01/01 03:52:00;;;;;;;65.88;51.97;;;15.20;99.90;;;;;;5043208;28;20049;-68
2024/01/01 03:54:25;;;;;;;58.40;41.95;;;14.80;99.90;;;;;;5030891;28;20494;-67
2024/01/01 03:56:51;;;;;;;66.57;52.17;;;12.30;99.90;;;;;;5018067;28;20539;-68
2024/01/01 03:59:16;;;;;;;67.70;52.95;;;12.70;99.90;;;;;;5024697;28;20118;-69
2024/01/01 04:01:42;;;;;;;65.82;41.22;;;14.70;99.90;;;;;;5024583;28;20123;-66
2024/01/01 04:04:09;;;;;;;66.75;49.53;;;14.60;99.90;;;;;;5026853;28;20071;-66
2024/01/01 04:06:35;;;;;;;54.90;39.42;;;12.50;99.90;;;;;;5029249;28;20060;-68
2024/01/01 04:09:01;;;;;;;50.05;33.60;;;14.80;99.90;;;;;;5031516;28;20819;-68
2024/01/01 04:11:26;;;;;;;49.08;31.45;;;14.80;99.90;;;;;;5046655;28;20534;-67
2024/01/01 04:13:52;;;;;;;48.60;36.08;;;13.30;99.90;;;;;;5039497;28;20044;-68
2024/01/01 04:16:17;;;;;;;35.75;30.85;;;14.80;99.90;;;;;;5048133;28;20037;-69
2024/01/01 04:18:43;;;;;;;52.90;35.08;;;15.00;99.90;;;;;;5029172;28;20519;-67
2024/01/01 04:21:09;;;;;;;44.10;31.77;;;14.70;99.90;;;;;;5039454;28;20048;-66
2024/01/01 04:23:34;;;;;;;55.50;34.70;;;12.80;99.90;;;;;;5047880;28;20809;-68
2024/01/01 04:26:00;;;;;;;54.40;34.38;;;14.90;99.90;;;;;;5036521;28;20044;-67
2024/01/01 04:28:26;;;;;;;50.35;35.13;;;12.20;99.90;;;;;;5012863;28;20146;-67
2024/01/01 04:30:51;;;;;;;52.05;36.25;;;15.00;99.90;;;;;;5031399;28;20056;-69
2024/01/01 04:33:19;;;;;;;49.78;35.72;;;13.10;99.90;;;;;;5028545;28;20125;-66
2024/01/01 04:35:44;;;;;;;47.63;34.83;;;12.40;99.90;;;;;;5042320;28;20347;-66
2024/01/01 04:38:10;;;;;;;52.63;30.58;;;15.40;99.90;;;;;;5028867;28;20523;-68
2024/01/01 04:40:36;;;;;;;53.30;32.70;;;15.10;99.90;;;;;;5032707;28;20136;-66
2024/01/01 04:43:02;;;;;;;46.97;32.72;;;14.80;99.90;;;;;;5028625;28;20084;-67
2024/01/01 04:45:27;;;;;;;48.42;32.60;;;13.50;99.90;;;;;;5029814;28;20526;-67
2024/01/01 04:47:53;;;;;;;43.88;28.80;;;13.10;99.90;;;;;;5027671;28;20556;-67
2024/01/01 04:50:19;;;;;;;46.45;33.25;;;12.30;99.90;;;;;;5011036;28;20037;-67
2024/01/01 04:52:44;;;;;;;47.47;31.67;;;14.90;99.90;;;;;;5042994;28;20465;-68
2024/01/01 04:55:10;;;;;;;57.75;32.17;;;14.40;99.90;;;;;;5045716;28;20131;-68
2024/01/01 04:57:35;;;;;;;51.20;33.28;;;14.80;99.90;;;;;;5046366;28;20040;-70
2024/01/01 05:00:01;;;;;;;46.50;33.22;;;12.10;99.90;;;;;;5029396;28;20044;-69
2024/01/01 05:02:27;;;;;;;54.03;35.20;;;12.20;99.90;;;;;;5027436;28;20061;-68
2024/01/01 05:04:53;;;;;;;50.47;32.95;;;15.00;99.90;;;;;;5040218;28;20786;-69
2024/01/01 05:07:18;;;;;;;54.33;34.90;;;12.40;99.90;;;;;;5037086;28;20053;-68
2024/01/01 05:09:44;;;;;;;53.38;34.13;;;13.90;99.90;;;;;;5029798;28;20368;-67
2024/01/01 05:12:11;;;;;;;58.40;33.60;;;13.20;99.90;;;;;;5023734;28;20041;-67
2024/01/01 05:14:37;;;;;;;46.95;31.95;;;13.70;99.90;;;;;;5046830;28;20131;-67
2024/01/01 05:17:03;;;;;;;43.28;31.95;;;14.00;99.90;;;;;;5035905;28;20136;-67
2024/01/01 05:19:29;;;;;;;45.92;31.17;;;14.60;99.90;;;;;;5047184;28;20037;-67
2024/01/01 05:21:54;;;;;;;58.08;35.90;;;13.10;99.90;;;;;;5044776;28;20048;-68
2024/01/01 05:24:20;;;;;;;46.33;33.97;;;13.40;99.90;;;;;;5037289;28;20138;-66
2024/01/01 05:26:45;;;;;;;69.15;40.25;;;14.60;99.90;;;;;;5026790;28;20506;-68
2024/01/01 05:29:11;;;;;;;66.35;37.30;;;14.40;99.90;;;;;;5040375;28;20425;-67
2024/01/01 05:31:37;;;;;;;50.13;30.92;;;12.80;99.90;;;;;;5039939;28;20045;-67
2024/01/01 05:34:02;;;;;;;59.72;35.35;;;13.40;99.90;;;;;;5033767;28;20068;-66
2024/01/01 05:36:28;;;;;;;67.20;36.25;;;14.70;99.90;;;;;;5041702;28;20454;-67
2024/01/01 05:38:53;;;;;;;54.88;35.35;;;12.50;99.90;;;;;;5026698;28;20053;-67
2024/01/01 05:41:19;;;;;;;45.70;33.97;;;15.40;99.90;;;;;;5029994;28;20131;-66
2024/01/01 05:43:44;;;;;;;36.75;32.88;;;15.30;99.90;;;;;;5030052;28;20110;-67
2024/01/01 05:46:10;;;;;;;35.05;31.17;;;15.10;99.90;;;;;;5045812;28;20067;-67
2024/01/01 05:48:35;;;;;;;39.67;34.38;;;13.80;99.90;;;;;;5046372;28;20041;-66
2024/01/01 05:51:01;;;;;;;43.10;34.20;;;12.50;99.90;;;;;;5046084;28;20106;-66
2024/01/01 05:53:27;;;;;;;41.50;34.42;;;14.40;99.90;;;;;;5010118;28;20091;-66
2024/01/01 05:55:52;;;;;;;48.80;35.42;;;14.90;99.90;;;;;;5026504;28;20506;-66
2024/01/01 05:58:18;;;;;;;51.17;37.67;;;13.90;99.90;;;;;;5044984;28;20040;-68
2024/01/01 06:00:43;;;;;;;49.25;38.40;;;13.70;99.90;;;;;;5044660;28;20095;-68
2024/01/01 06:03:09;;;;;;;47.53;36.70;;;12.20;99.90;;;;;;5038328;28;20056;-68
2024/01/01 06:05:35;;;;;;;51.58;34.30;;;12.30;99.90;;;;;;5045478;28;20044;-69
2024/01/01 06:08:02;;;;;;;45.58;30.70;;;14.80;99.90;;;;;;5046461;28;20410;-69
2024/01/01 06:10:31;;;;;;;47.10;34.22;;;12.30;99.90;;;;;;5045881;28;20052;-67
2024/01/01 06:12:57;;;;;;;47.47;34.25;;;14.90;99.90;;;;;;5038229;28;20032;-67
2024/01/01 06:15:24;;;;;;;44.53;35.13;;;14.90;99.90;;;;;;5046013;28;20045;-68
2024/01/01 06:17:53;;;;;;;39.28;32.17;;;14.60;99.90;;;;;;5011192;28;20073;-69
2024/01/01 06:20:19;;;;;;;34.40;30.88;;;13.20;99.90;;;;;;5027646;28;20083;-69
2024/01/01 06:22:46;;;;;;;30.55;27.55;;;14.40;99.90;;;;;;5029468;28;20472;-68
2024/01/01 06:25:12;;;;;;;31.75;28.55;;;12.80;99.90;;;;;;5030475;28;20044;-66
2024/01/01 06:27:38;;;;;;;34.28;30.08;;;12.40;99.90;;;;;;5045712;28;20047;-66
2024/01/01 06:30:05;;;;;;;33.00;29.52;;;12.10;99.90;;;;;;5041426;28;20029;-68
2024/01/01 06:32:31;;;;;;;33.80;30.25;;;12.10;99.90;;;;;;5034547;28;20076;-67
2024/01/01 06:34:56;;;;;;;34.85;30.55;;;12.10;99.90;;;;;;5029110;28;20506;-67
2024/01/01 06:37:22;;;;;;;30.45;27.63;;;12.50;99.90;;;;;;5040246;28;20048;-69
2024/01/01 06:39:48;;;;;;;35.42;30.40;;;14.50;99.90;;;;;;5033932;28;20120;-68
2024/01/01 06:42:15;;;;;;;35.15;31.42;;;13.50;99.90;;;;;;5025982;28;20046;-68
2024/01/01 06:44:41;;;;;;;33.58;30.45;;;13.80;99.90;;;;;;5044844;28;20045;-66
2024/01/01 06:47:06;;;;;;;34.35;31.05;;;12.10;99.90;;;;;;5027633;28;20048;-66
2024/01/01 06:49:32;;;;;;;34.97;31.17;;;11.50;99.90;;;;;;5027667;28;20028;-67
2024/01/01 06:51:57;;;;;;;36.55;31.05;;;13.60;99.90;;;;;;5025465;28;20098;-67
2024/01/01 06:54:23;;;;;;;37.58;29.90;;;13.60;99.90;;;;;;5045041;28;20122;-66
2024/01/01 06:56:49;;;;;;;31.92;28.70;;;13.30;99.90;;;;;;5027543;28;20114;-67
2024/01/01 06:59:16;;;;;;;38.28;29.33;;;12.90;99.90;;;;;;5025916;28;20060;-67
2024/01/01 07:01:43;;;;;;;38.55;29.23;;;12.90;99.90;;;;;;5045001;28;20410;-66
2024/01/01 07:04:09;;;;;;;41.20;30.70;;;13.10;99.90;;;;;;5035644;28;20045;-67
2024/01/01 07:06:37;;;;;;;45.20;30.80;;;13.40;99.90;;;;;;5031499;28;20091;-66
2024/01/01 07:09:02;;;;;;;48.17;32.90;;;14.10;99.90;;;;;;5035048;28;20055;-66
2024/01/01 07:11:28;;;;;;;45.38;32.33;;;14.40;99.90;;;;;;5043887;28;20649;-67
2024/01/01 07:13:54;;;;;;;44.42;27.30;;;14.20;99.90;;;;;;5031536;28;20052;-69
2024/01/01 07:16:19;;;;;;;39.05;28.17;;;14.50;99.90;;;;;;5041687;28;20132;-65
2024/01/01 07:18:46;;;;;;;50.58;31.67;;;12.40;99.90;;;;;;5031268;28;20359;-68
2024/01/01 07:21:11;;;;;;;45.28;28.58;;;12.50;99.90;;;;;;5032441;28;20044;-66
2024/01/01 07:23:37;;;;;;;47.83;33.53;;;15.30;99.90;;;;;;5034156;28;20407;-66
2024/01/01 07:26:03;;;;;;;48.85;33.15;;;12.40;99.90;;;;;;5042656;28;20041;-67
2024/01/01 07:28:28;;;;;;;44.38;35.25;;;12.50;99.90;;;;;;5042245;28;20123;-67
2024/01/01 07:30:56;;;;;;;40.85;31.15;;;14.90;99.90;;;;;;5035382;28;20063;-67
2024/01/01 07:33:21;;;;;;;34.92;27.95;;;15.10;99.90;;;;;;5030097;28;20531;-66
2024/01/01 07:35:47;;;;;;;45.97;35.38;;;12.80;99.90;;;;;;5039713;28;20041;-67
2024/01/01 07:38:12;;;;;;;47.05;31.42;;;14.10;99.90;;;;;;5037346;28;20087;-66
2024/01/01 07:40:38;;;;;;;52.53;37.83;;;12.90;99.90;;;;;;5044147;28;20071;-65
2024/01/01 07:43:04;;;;;;;52.28;33.80;;;13.80;99.90;;;;;;5040551;28;20045;-66
2024/01/01 07:45:29;;;;;;;52.08;35.10;;;13.40;99.90;;;;;;5043438;28;20048;-68
2024/01/01 07:47:55;;;;;;;49.63;33.58;;;14.80;99.90;;;;;;5032167;28;20518;-67
2024/01/01 07:50:20;;;;;;;54.85;36.53;;;14.30;99.90;;;;;;5038014;28;20403;-66
2024/01/01 07:52:46;;;;;;;48.65;33.65;;;13.10;99.90;;;;;;5038276;28;20148;-66
2024/01/01 07:55:12;;;;;;;49.80;35.70;;;13.40;99.90;;;;;;5042898;28;20044;-66
2024/01/01 07:57:38;;;;;;;46.53;35.28;;;13.20;99.90;;;;;;5038425;28;20053;-66
2024/01/01 08:00:06;;;;;;;40.05;33.63;;;13.30;99.90;;;;;;5027090;28;20041;-66
2024/01/01 08:02:32;;;;;;;41.80;33.47;;;15.10;99.90;;;;;;5038952;28;20122;-66
2024/01/01 08:04:59;;;;;;;44.45;34.08;;;13.10;99.90;;;;;;5026636;28;20073;-66
2024/01/01 08:07:24;;;;;;;41.90;33.25;;;13.40;99.90;;;;;;5035689;28;20064;-68
2024/01/01 08:09:50;;;;;;;38.90;32.05;;;15.30;99.90;;;;;;5034880;28;20045;-67
2024/01/01 08:12:16;;;;;;;44.20;32.15;;;14.80;99.90;;;;;;5036169;28;20423;-66
2024/01/01 08:14:41;;;;;;;42.90;33.85;;;15.60;99.90;;;;;;5040926;28;20535;-66
2024/01/01 08:17:08;;;;;;;41.78;31.00;;;12.60;99.90;;;;;;5042126;28;20514;-67
2024/01/01 08:19:34;;;;;;;48.75;33.53;;;12.40;99.90;;;;;;5035280;28;20060;-67
2024/01/01 08:22:00;;;;;;;43.97;33.15;;;14.60;99.90;;;;;;5036111;28;20052;-67
2024/01/01 08:24:25;;;;;;;49.42;30.20;;;13.00;99.90;;;;;;5043331;28;20418;-65
2024/01/01 08:26:51;;;;;;;48.97;34.03;;;15.10;99.90;;;;;;5043701;28;20044;-66
2024/01/01 08:29:17;;;;;;;43.42;31.92;;;12.50;99.90;;;;;;5037700;28;20157;-66
2024/01/01 08:31:42;;;;;;;40.83;30.90;;;14.80;99.90;;;;;;5017190;28;20053;-65
2024/01/01 08:34:08;;;;;;;47.75;33.15;;;14.10;99.90;;;;;;5038897;28;20041;-67
2024/01/01 08:36:34;;;;;;;53.63;35.78;;;15.30;99.90;;;;;;5033100;28;20049;-67
2024/01/01 08:38:59;;;;;;;46.17;32.17;;;12.80;99.90;;;;;;5028255;28;20521;-67
2024/01/01 08:41:25;;;;;;;49.17;37.28;;;13.60;99.90;;;;;;5037300;28;20049;-64
2024/01/01 08:43:56;;;;;;;48.60;37.67;;;12.80;99.90;;;;;;5031373;28;20049;-67
2024/01/01 08:46:25;;;;;;;41.45;30.08;;;13.70;99.90;;;;;;5030752;28;20048;-67
2024/01/01 08:48:54;;;;;;;52.85;35.47;;;15.00;99.90;;;;;;5040166;28;20040;-68
2024/01/01 08:51:20;;;;;;;50.45;30.63;;;14.40;99.90;;;;;;5046315;28;20052;-67
2024/01/01 08:53:45;;;;;;;48.35;30.73;;;15.00;99.90;;;;;;5043829;28;20049;-66
2024/01/01 08:56:14;;;;;;;60.25;37.70;;;12.70;99.90;;;;;;5035177;28;20495;-66
2024/01/01 08:58:40;;;;;;;40.78;35.35;;;15.30;99.90;;;;;;5042624;28;20064;-67
2024/01/01 09:01:06;;;;;;;39.47;33.67;;;12.90;99.90;;;;;;5048147;28;20049;-68
2024/01/01 09:03:31;;;;;;;45.58;35.25;;;13.70;99.90;;;;;;5035654;28;20060;-67
2024/01/01 09:05:58;;;;;;;53.13;35.00;;;13.70;99.90;;;;;;5036279;28;20037;-67
2024/01/01 09:08:28;;;;;;;52.63;34.70;;;15.50;99.90;;;;;;5044813;28;20052;-67
2024/01/01 09:10:54;;;;;;;53.03;32.88;;;14.30;99.90;;;;;;5026361;28;20041;-70
2024/01/01 09:13:19;;;;;;;57.38;36.08;;;15.00;99.90;;;;;;5023957;28;20415;-68
2024/01/01 09:15:45;;;;;;;55.10;37.28;;;12.90;99.90;;;;;;5041690;28;20046;-67
2024/01/01 09:18:10;;;;;;;56.50;35.15;;;14.10;99.90;;;;;;5036973;28;20140;-65
2024/01/01 09:20:38;;;;;;;64.18;38.58;;;14.80;99.90;;;;;;5041991;28;20037;-65
2024/01/01 09:23:04;;;;;;;60.33;37.92;;;14.60;99.90;;;;;;5021885;28;20046;-68
2024/01/01 09:25:30;;;;;;;44.00;30.63;;;15.50;99.90;;;;;;5035909;28;20041;-65
2024/01/01 09:27:56;;;;;;;64.80;37.30;;;13.50;99.90;;;;;;5038641;28;20037;-68
2024/01/01 09:30:21;;;;;;;51.70;31.73;;;14.10;99.90;;;;;;5042557;28;20462;-65
2024/01/01 09:32:47;;;;;;;60.58;36.95;;;15.60;99.90;;;;;;5047211;28;20396;-66
2024/01/01 09:35:16;;;;;;;55.08;36.00;;;15.90;99.90;;;;;;5036825;28;20160;-65
2024/01/01 09:37:41;;;;;;;53.72;36.25;;;16.00;99.90;;;;;;5041924;28;20084;-65
2024/01/01 09:40:08;;;;;;;54.67;36.58;;;16.00;99.90;;;;;;5041005;28;20455;-65
2024/01/01 09:42:33;;;;;;;52.33;38.80;;;13.00;99.90;;;;;;5046006;28;20438;-65
2024/01/01 09:44:59;;;;;;;53.17;34.17;;;15.40;99.90;;;;;;5046412;28;20041;-65
2024/01/01 09:47:24;;;;;;;51.05;35.47;;;16.00;99.90;;;;;;5035097;28;20041;-66
2024/01/01 09:49:50;;;;;;;58.80;38.22;;;14.10;99.90;;;;;;5039012;28;20694;-65
2024/01/01 09:52:17;;;;;;;60.03;37.97;;;13.90;99.90;;;;;;5041663;28;20565;-65
2024/01/01 09:54:42;;;;;;;57.10;37.78;;;16.00;99.90;;;;;;5026203;28;20048;-65
2024/01/01 09:57:08;;;;;;;47.70;35.97;;;15.10;99.90;;;;;;5033709;28;20135;-66
2024/01/01 09:59:37;;;;;;;54.80;38.47;;;15.90;99.90;;;;;;5044287;28;20053;-65
2024/01/01 10:02:12;;;;;;;50.63;34.50;;;14.50;99.90;;;;;;5043329;28;20135;-66
2024/01/01 10:04:37;;;;;;;50.50;35.40;;;14.10;99.90;;;;;;5043285;28;20060;-66
2024/01/01 10:07:03;;;;;;;47.75;37.58;;;16.00;99.90;;;;;;5044080;28;20045;-68
2024/01/01 10:09:29;;;;;;;45.80;36.75;;;14.70;99.90;;;;;;5030928;28;20407;-67
2024/01/01 10:12:09;;;;;;;49.03;33.75;;;15.30;99.90;;;;;;5034102;28;20108;-65
2024/01/01 10:14:44;;;;;;;46.10;33.53;;;14.50;99.90;;;;;;5039765;28;20943;-65
2024/01/01 10:17:14;;;;;;;46.87;33.67;;;16.00;99.90;;;;;;5040170;28;20059;-68
2024/01/01 10:19:51;;;;;;;46.28;32.65;;;14.60;99.90;;;;;;5043996;28;20287;-66
2024/01/01 10:22:20;;;;;;;40.33;31.48;;;16.00;99.90;;;;;;5039171;28;20044;-66
2024/01/01 10:24:47;;;;;;;47.78;33.58;;;14.70;99.90;;;;;;5045414;28;20037;-67
2024/01/01 10:27:17;;;;;;;41.95;33.88;;;13.80;99.90;;;;;;5043287;28;20045;-66
2024/01/01 10:29:44;;;;;;;47.53;35.28;;;13.80;99.90;;;;;;5037663;28;20414;-64
2024/01/01 10:32:12;;;;;;;43.72;34.28;;;14.50;99.90;;;;;;5042606;28;20039;-65
2024/01/01 10:34:38;;;;;;;53.17;36.15;;;14.20;99.90;;;;;;5042236;28;20044;-64
2024/01/01 10:37:04;;;;;;;49.53;34.90;;;14.30;99.90;;;;;;5037825;28;20402;-66
2024/01/01 10:39:32;;;;;;;47.05;34.60;;;13.90;99.90;;;;;;5043090;28;20045;-67
2024/01/01 10:41:58;;;;;;;50.35;32.75;;;13.90;99.90;;;;;;5034064;28;20041;-65
2024/01/01 10:44:23;;;;;;;48.90;33.45;;;15.80;99.90;;;;;;5041591;28;20056;-67
2024/01/01 10:46:54;;;;;;;52.65;36.40;;;14.00;99.90;;;;;;5037302;28;20037;-65
2024/01/01 10:49:23;;;;;;;44.42;35.47;;;14.40;99.90;;;;;;5039744;28;20048;-67
2024/01/01 10:52:08;;;;;;;48.38;34.28;;;15.20;99.90;;;;;;5042661;28;20049;-66
2024/01/01 10:54:54;;;;;;;50.20;34.50;;;15.80;99.90;;;;;;5044258;28;20048;-65
2024/01/01 10:57:38;;;;;;;45.20;34.22;;;14.30;99.90;;;;;;5034253;28;20438;-67
2024/01/01 11:00:22;;;;;;;40.90;31.27;;;15.80;99.90;;;;;;5034783;28;20048;-67
2024/01/01 11:02:48;;;;;;;43.10;33.65;;;15.10;99.90;;;;;;5044045;28;20139;-64
2024/01/01 11:05:15;;;;;;;48.38;34.88;;;14.70;99.90;;;;;;5017188;28;20040;-66
2024/01/01 11:08:00;;;;;;;45.53;32.40;;;15.60;99.90;;;;;;5028244;28;20063;-64
2024/01/01 11:10:42;;;;;;;43.92;33.95;;;15.60;99.90;;;;;;5038562;28;20131;-65
2024/01/01 11:13:26;;;;;;;47.45;33.95;;;14.00;99.90;;;;;;5039579;28;20037;-65
2024/01/01 11:15:58;;;;;;;50.30;34.50;;;15.40;99.90;;;;;;5040222;28;20048;-64
2024/01/01 11:18:32;;;;;;;51.65;35.10;;;15.80;99.90;;;;;;5037041;28;20034;-67
2024/01/01 11:21:00;;;;;;;43.42;31.98;;;15.80;99.90;;;;;;5040659;28;20037;-64
2024/01/01 11:23:47;;;;;;;44.63;31.42;;;15.60;99.90;;;;;;5037063;28;20454;-65
2024/01/01 11:26:22;;;;;;;38.53;28.38;;;15.30;99.90;;;;;;5036171;28;20045;-66
2024/01/01 11:28:48;;;;;;;42.58;32.08;;;15.70;99.90;;;;;;5041411;28;20506;-67
2024/01/01 11:31:14;;;;;;;50.65;33.05;;;15.80;99.90;;;;;;5036932;28;20060;-64
2024/01/01 11:33:39;;;;;;;48.25;34.85;;;15.30;99.90;;;;;;5041215;28;20036;-65
2024/01/01 11:36:06;;;;;;;47.10;34.58;;;15.60;99.90;;;;;;5042817;28;20061;-66
2024/01/01 11:38:32;;;;;;;42.30;33.17;;;15.50;99.90;;;;;;5041971;28;20126;-65
2024/01/01 11:40:58;;;;;;;46.88;33.30;;;14.50;99.90;;;;;;5035858;28;20606;-67
2024/01/01 11:43:23;;;;;;;47.22;33.70;;;15.40;99.90;;;;;;5040250;28;20123;-66
2024/01/01 11:45:56;;;;;;;46.13;32.15;;;15.50;99.90;;;;;;5043254;28;20045;-66
2024/01/01 11:48:23;;;;;;;46.42;32.25;;;14.00;99.90;;;;;;5027796;28;20040;-67
2024/01/01 11:50:49;;;;;;;46.00;33.30;;;14.20;99.90;;;;;;5034741;28;20526;-66
2024/01/01 11:53:18;;;;;;;38.70;29.05;;;15.60;99.90;;;;;;5040638;28;20075;-64
2024/01/01 11:55:44;;;;;;;49.20;30.80;;;14.00;99.90;;;;;;5045072;28;20041;-65
2024/01/01 11:58:11;;;;;;;40.90;31.85;;;15.50;99.90;;;;;;5043031;28;20384;-66
2024/01/01 12:00:36;;;;;;;49.78;33.80;;;15.60;99.90;;;;;;5041795;28;20059;-64
2024/01/01 12:03:05;;;;;;;50.08;35.70;;;14.40;99.90;;;;;;5031394;28;20049;-67
2024/01/01 12:05:32;;;;;;;52.90;33.67;;;15.60;99.90;;;;;;5038797;28;20062;-66
2024/01/01 12:08:00;;;;;;;47.97;35.88;;;15.50;99.90;;;;;;5042923;28;20129;-68
2024/01/01 12:10:27;;;;;;;49.05;33.65;;;14.20;99.90;;;;;;5029499;28;20044;-65
2024/01/01 12:13:01;;;;;;;47.88;34.47;;;15.60;99.90;;;;;;5039834;28;20088;-66
2024/01/01 12:15:31;;;;;;;45.75;34.85;;;15.80;99.90;;;;;;5041103;28;20570;-65
2024/01/01 12:17:57;;;;;;;45.72;32.50;;;15.50;99.90;;;;;;5036151;28;20348;-66
2024/01/01 12:20:24;;;;;;;48.80;32.50;;;15.50;99.90;;;;;;5042884;28;20044;-66
2024/01/01 12:22:50;;;;;;;42.35;31.60;;;14.60;99.90;;;;;;5038075;28;20045;-65